sensor_id;sensor_type;location;lat;lon;timestamp;temperature;humidity
71668;DHT22;59504;54.806;9.640;2023-04-01T00:00:39;5.30;90.10
71668;DHT22;59504;54.806;9.640;2023-04-01T00:02:51;5.40;90.00
71668;DHT22;59504;54.806;9.640;2023-04-01T00:05:12;5.50;90.00
71668;DHT22;59504;54.806;9.640;2023-04-01T00:07:33;5.60;90.00
71668;DHT22;59504;54.806;9.640;2023-04-01T00:09:54;5.50;89.60
71668;DHT22;59504;54.806;9.640;2023-04-01T00:12:15;5.30;89.50
71668;DHT22;59504;54.806;9.640;2023-04-01T00:14:36;5.30;89.60
71668;DHT22;59504;54.806;9.640;2023-04-01T00:17:06;5.30;89.60
71668;DHT22;59504;54.806;9.640;2023-04-01T00:19:26;5.20;89.40
71668;DHT22;59504;54.806;9.640;2023-04-01T00:21:48;5.40;89.40
71668;DHT22;59504;54.806;9.640;2023-04-01T00:24:09;5.30;89.70
71668;DHT22;59504;54.806;9.640;2023-04-01T00:26:32;5.20;89.80
71668;DHT22;59504;54.806;9.640;2023-04-01T00:28:53;5.20;89.60
71668;DHT22;59504;54.806;9.640;2023-04-01T00:31:13;5.10;89.90
71668;DHT22;59504;54.806;9.640;2023-04-01T00:33:38;5.10;89.70
71668;DHT22;59504;54.806;9.640;2023-04-01T00:36:10;5.10;89.60
71668;DHT22;59504;54.806;9.640;2023-04-01T00:38:31;5.20;89.40
71668;DHT22;59504;54.806;9.640;2023-04-01T00:41:03;5.10;89.80
71668;DHT22;59504;54.806;9.640;2023-04-01T00:43:25;5.00;90.00
71668;DHT22;59504;54.806;9.640;2023-04-01T00:45:46;5.00;89.80
71668;DHT22;59504;54.806;9.640;2023-04-01T00:48:11;4.80;89.70
71668;DHT22;59504;54.806;9.640;2023-04-01T00:50:33;4.80;89.90
71668;DHT22;59504;54.806;9.640;2023-04-01T00:52:55;4.80;90.10
71668;DHT22;59504;54.806;9.640;2023-04-01T00:55:16;4.80;90.10
71668;DHT22;59504;54.806;9.640;2023-04-01T00:57:41;4.60;90.20
71668;DHT22;59504;54.806;9.640;2023-04-01T00:59:48;4.80;90.30
71668;DHT22;59504;54.806;9.640;2023-04-01T01:01:52;4.70;90.20
71668;DHT22;59504;54.806;9.640;2023-04-01T01:03:59;4.70;90.10
71668;DHT22;59504;54.806;9.640;2023-04-01T01:08:21;4.50;90.10
71668;DHT22;59504;54.806;9.640;2023-04-01T01:10:43;4.50;90.10
71668;DHT22;59504;54.806;9.640;2023-04-01T01:13:10;4.50;90.00
71668;DHT22;59504;54.806;9.640;2023-04-01T01:15:16;4.40;90.20
71668;DHT22;59504;54.806;9.640;2023-04-01T01:17:32;4.40;90.20
71668;DHT22;59504;54.806;9.640;2023-04-01T01:22:45;4.40;90.20
71668;DHT22;59504;54.806;9.640;2023-04-01T01:27:32;4.50;90.20
71668;DHT22;59504;54.806;9.640;2023-04-01T01:32:32;4.40;90.20
71668;DHT22;59504;54.806;9.640;2023-04-01T01:37:24;4.30;90.20
71668;DHT22;59504;54.806;9.640;2023-04-01T01:39:48;4.50;90.20
71668;DHT22;59504;54.806;9.640;2023-04-01T01:42:11;4.30;90.30
71668;DHT22;59504;54.806;9.640;2023-04-01T01:44:18;4.30;90.20
71668;DHT22;59504;54.806;9.640;2023-04-01T01:46:41;4.40;90.20
71668;DHT22;59504;54.806;9.640;2023-04-01T01:49:03;4.40;90.30
71668;DHT22;59504;54.806;9.640;2023-04-01T01:51:27;4.20;90.30
71668;DHT22;59504;54.806;9.640;2023-04-01T01:53:48;4.20;90.20
71668;DHT22;59504;54.806;9.640;2023-04-01T01:56:10;4.10;90.20
71668;DHT22;59504;54.806;9.640;2023-04-01T01:58:33;4.20;90.20
71668;DHT22;59504;54.806;9.640;2023-04-01T02:01:03;4.20;90.40
71668;DHT22;59504;54.806;9.640;2023-04-01T02:03:27;4.00;90.40
71668;DHT22;59504;54.806;9.640;2023-04-01T02:05:51;4.00;90.40
71668;DHT22;59504;54.806;9.640;2023-04-01T02:08:13;4.00;90.40
71668;DHT22;59504;54.806;9.640;2023-04-01T02:10:15;4.10;90.30
71668;DHT22;59504;54.806;9.640;2023-04-01T02:12:19;4.00;90.30
71668;DHT22;59504;54.806;9.640;2023-04-01T02:14:24;4.00;90.30
71668;DHT22;59504;54.806;9.640;2023-04-01T02:16:36;3.90;90.40
71668;DHT22;59504;54.806;9.640;2023-04-01T02:18:42;4.00;90.30
71668;DHT22;59504;54.806;9.640;2023-04-01T02:20:45;4.00;90.20
71668;DHT22;59504;54.806;9.640;2023-04-01T02:22:53;4.00;90.40
71668;DHT22;59504;54.806;9.640;2023-04-01T02:25:02;4.00;90.30
71668;DHT22;59504;54.806;9.640;2023-04-01T02:27:09;4.10;90.30
71668;DHT22;59504;54.806;9.640;2023-04-01T02:29:11;4.00;90.10
71668;DHT22;59504;54.806;9.640;2023-04-01T02:31:13;3.80;90.20
71668;DHT22;59504;54.806;9.640;2023-04-01T02:33:15;3.90;90.20
71668;DHT22;59504;54.806;9.640;2023-04-01T02:35:17;3.70;90.20
71668;DHT22;59504;54.806;9.640;2023-04-01T02:37:18;3.80;90.30
71668;DHT22;59504;54.806;9.640;2023-04-01T02:39:19;3.80;90.20
71668;DHT22;59504;54.806;9.640;2023-04-01T02:41:20;3.80;90.10
71668;DHT22;59504;54.806;9.640;2023-04-01T02:43:21;3.80;90.20
71668;DHT22;59504;54.806;9.640;2023-04-01T02:45:22;3.80;90.20
71668;DHT22;59504;54.806;9.640;2023-04-01T02:47:22;3.90;90.10
71668;DHT22;59504;54.806;9.640;2023-04-01T02:49:23;3.80;89.90
71668;DHT22;59504;54.806;9.640;2023-04-01T02:51:26;3.60;90.00
71668;DHT22;59504;54.806;9.640;2023-04-01T02:53:27;3.60;90.10
71668;DHT22;59504;54.806;9.640;2023-04-01T02:55:27;3.70;90.10
71668;DHT22;59504;54.806;9.640;2023-04-01T02:57:28;3.50;90.10
71668;DHT22;59504;54.806;9.640;2023-04-01T02:59:29;3.70;90.30
71668;DHT22;59504;54.806;9.640;2023-04-01T03:01:30;3.40;90.20
71668;DHT22;59504;54.806;9.640;2023-04-01T03:03:31;3.50;90.50
71668;DHT22;59504;54.806;9.640;2023-04-01T03:05:35;3.50;90.20
71668;DHT22;59504;54.806;9.640;2023-04-01T03:07:35;3.60;90.20
71668;DHT22;59504;54.806;9.640;2023-04-01T03:09:37;3.60;90.20
71668;DHT22;59504;54.806;9.640;2023-04-01T03:11:38;3.60;90.10
71668;DHT22;59504;54.806;9.640;2023-04-01T03:13:39;3.60;90.20
71668;DHT22;59504;54.806;9.640;2023-04-01T03:15:40;3.60;90.00
71668;DHT22;59504;54.806;9.640;2023-04-01T03:17:41;3.50;90.00
71668;DHT22;59504;54.806;9.640;2023-04-01T03:19:42;3.60;90.00
71668;DHT22;59504;54.806;9.640;2023-04-01T03:21:43;3.60;89.90
71668;DHT22;59504;54.806;9.640;2023-04-01T03:23:43;3.50;89.80
71668;DHT22;59504;54.806;9.640;2023-04-01T03:25:45;3.60;89.80
71668;DHT22;59504;54.806;9.640;2023-04-01T03:27:45;3.60;89.60
71668;DHT22;59504;54.806;9.640;2023-04-01T03:29:46;3.60;89.50
71668;DHT22;59504;54.806;9.640;2023-04-01T03:31:47;3.50;89.50
71668;DHT22;59504;54.806;9.640;2023-04-01T03:33:53;3.40;89.80
71668;DHT22;59504;54.806;9.640;2023-04-01T03:35:53;3.40;89.80
71668;DHT22;59504;54.806;9.640;2023-04-01T03:37:54;3.50;89.60
71668;DHT22;59504;54.806;9.640;2023-04-01T03:39:55;3.40;89.60
71668;DHT22;59504;54.806;9.640;2023-04-01T03:41:55;3.40;89.90
71668;DHT22;59504;54.806;9.640;2023-04-01T03:43:57;3.40;89.50
71668;DHT22;59504;54.806;9.640;2023-04-01T03:45:58;3.50;89.60
71668;DHT22;59504;54.806;9.640;2023-04-01T03:47:58;3.50;89.80
71668;DHT22;59504;54.806;9.640;2023-04-01T03:50:03;3.60;89.80
71668;DHT22;59504;54.806;9.640;2023-04-01T03:52:04;3.60;89.60
71668;DHT22;59504;54.806;9.640;2023-04-01T03:54:09;3.70;89.40
71668;DHT22;59504;54.806;9.640;2023-04-01T03:56:15;3.60;89.10
71668;DHT22;59504;54.806;9.640;2023-04-01T03:58:17;3.60;89.30
71668;DHT22;59504;54.806;9.640;2023-04-01T04:00:17;3.70;89.10
71668;DHT22;59504;54.806;9.640;2023-04-01T04:02:18;3.50;88.60
71668;DHT22;59504;54.806;9.640;2023-04-01T04:04:19;3.50;88.50
71668;DHT22;59504;54.806;9.640;2023-04-01T04:06:20;3.50;88.50
71668;DHT22;59504;54.806;9.640;2023-04-01T04:08:21;3.60;88.60
71668;DHT22;59504;54.806;9.640;2023-04-01T04:10:22;3.40;88.50
71668;DHT22;59504;54.806;9.640;2023-04-01T04:12:25;3.60;88.70
71668;DHT22;59504;54.806;9.640;2023-04-01T04:14:27;3.50;88.60
71668;DHT22;59504;54.806;9.640;2023-04-01T04:16:27;3.30;88.50
71668;DHT22;59504;54.806;9.640;2023-04-01T04:18:28;3.30;88.90
71668;DHT22;59504;54.806;9.640;2023-04-01T04:20:29;3.30;89.10
71668;DHT22;59504;54.806;9.640;2023-04-01T04:22:30;3.40;89.20
71668;DHT22;59504;54.806;9.640;2023-04-01T04:24:30;3.40;89.00
71668;DHT22;59504;54.806;9.640;2023-04-01T04:26:31;3.40;89.00
71668;DHT22;59504;54.806;9.640;2023-04-01T04:28:32;3.40;89.00
71668;DHT22;59504;54.806;9.640;2023-04-01T04:30:33;3.40;88.60
71668;DHT22;59504;54.806;9.640;2023-04-01T04:32:37;3.40;88.70
71668;DHT22;59504;54.806;9.640;2023-04-01T04:34:41;3.40;88.50
71668;DHT22;59504;54.806;9.640;2023-04-01T04:36:41;3.50;88.50
71668;DHT22;59504;54.806;9.640;2023-04-01T04:38:42;3.60;88.30
71668;DHT22;59504;54.806;9.640;2023-04-01T04:41:02;3.40;88.20
71668;DHT22;59504;54.806;9.640;2023-04-01T04:43:06;3.50;88.30
71668;DHT22;59504;54.806;9.640;2023-04-01T04:45:06;3.50;88.30
71668;DHT22;59504;54.806;9.640;2023-04-01T04:47:10;3.40;88.20
71668;DHT22;59504;54.806;9.640;2023-04-01T04:49:19;3.50;88.20
71668;DHT22;59504;54.806;9.640;2023-04-01T04:51:20;3.30;88.00
71668;DHT22;59504;54.806;9.640;2023-04-01T04:53:21;3.50;88.50
71668;DHT22;59504;54.806;9.640;2023-04-01T04:55:22;3.40;88.30
71668;DHT22;59504;54.806;9.640;2023-04-01T04:57:31;3.40;88.30
71668;DHT22;59504;54.806;9.640;2023-04-01T04:59:35;3.40;88.10
71668;DHT22;59504;54.806;9.640;2023-04-01T05:01:35;3.50;87.90
71668;DHT22;59504;54.806;9.640;2023-04-01T05:03:40;3.50;88.60
71668;DHT22;59504;54.806;9.640;2023-04-01T05:05:49;3.30;87.60
71668;DHT22;59504;54.806;9.640;2023-04-01T05:07:50;3.40;87.80
71668;DHT22;59504;54.806;9.640;2023-04-01T05:09:50;3.50;87.70
71668;DHT22;59504;54.806;9.640;2023-04-01T05:11:51;3.50;87.70
71668;DHT22;59504;54.806;9.640;2023-04-01T05:13:52;3.60;87.70
71668;DHT22;59504;54.806;9.640;2023-04-01T05:15:53;3.60;87.40
71668;DHT22;59504;54.806;9.640;2023-04-01T05:17:53;3.70;87.40
71668;DHT22;59504;54.806;9.640;2023-04-01T05:19:59;3.70;87.40
71668;DHT22;59504;54.806;9.640;2023-04-01T05:21:59;3.60;87.10
71668;DHT22;59504;54.806;9.640;2023-04-01T05:24:00;3.50;87.10
71668;DHT22;59504;54.806;9.640;2023-04-01T05:26:05;3.70;87.30
71668;DHT22;59504;54.806;9.640;2023-04-01T05:28:09;3.50;87.10
71668;DHT22;59504;54.806;9.640;2023-04-01T05:30:10;3.50;87.10
71668;DHT22;59504;54.806;9.640;2023-04-01T05:32:15;3.50;86.80
71668;DHT22;59504;54.806;9.640;2023-04-01T05:34:19;3.40;87.00
71668;DHT22;59504;54.806;9.640;2023-04-01T05:36:28;3.50;88.00
71668;DHT22;59504;54.806;9.640;2023-04-01T05:38:34;3.40;87.20
71668;DHT22;59504;54.806;9.640;2023-04-01T05:40:44;3.50;87.40
71668;DHT22;59504;54.806;9.640;2023-04-01T05:42:53;3.30;88.40
71668;DHT22;59504;54.806;9.640;2023-04-01T05:44:54;3.50;87.70
71668;DHT22;59504;54.806;9.640;2023-04-01T05:46:59;3.50;87.70
71668;DHT22;59504;54.806;9.640;2023-04-01T05:48:59;3.40;87.70
71668;DHT22;59504;54.806;9.640;2023-04-01T05:51:01;3.20;87.90
71668;DHT22;59504;54.806;9.640;2023-04-01T05:53:01;3.30;88.10
71668;DHT22;59504;54.806;9.640;2023-04-01T05:55:05;3.40;87.80
71668;DHT22;59504;54.806;9.640;2023-04-01T05:57:06;3.40;87.80
71668;DHT22;59504;54.806;9.640;2023-04-01T05:59:08;3.40;88.60
71668;DHT22;59504;54.806;9.640;2023-04-01T06:01:10;3.40;88.20
71668;DHT22;59504;54.806;9.640;2023-04-01T06:03:11;3.40;88.10
71668;DHT22;59504;54.806;9.640;2023-04-01T06:05:17;3.50;88.10
71668;DHT22;59504;54.806;9.640;2023-04-01T06:07:18;3.50;87.90
71668;DHT22;59504;54.806;9.640;2023-04-01T06:09:27;3.60;87.90
71668;DHT22;59504;54.806;9.640;2023-04-01T06:11:37;3.50;87.60
71668;DHT22;59504;54.806;9.640;2023-04-01T06:14:38;3.50;87.50
71668;DHT22;59504;54.806;9.640;2023-04-01T06:23:15;3.50;87.60
71668;DHT22;59504;54.806;9.640;2023-04-01T06:32:13;3.50;87.80
71668;DHT22;59504;54.806;9.640;2023-04-01T06:42:53;3.50;87.50
71668;DHT22;59504;54.806;9.640;2023-04-01T06:50:49;3.40;87.60
71668;DHT22;59504;54.806;9.640;2023-04-01T06:56:11;3.40;87.30
71668;DHT22;59504;54.806;9.640;2023-04-01T06:58:31;3.40;87.20
71668;DHT22;59504;54.806;9.640;2023-04-01T07:00:39;3.40;87.50
71668;DHT22;59504;54.806;9.640;2023-04-01T07:02:48;3.40;87.30
71668;DHT22;59504;54.806;9.640;2023-04-01T07:04:55;3.50;87.20
71668;DHT22;59504;54.806;9.640;2023-04-01T07:07:21;3.40;87.30
71668;DHT22;59504;54.806;9.640;2023-04-01T07:11:59;3.40;86.90
71668;DHT22;59504;54.806;9.640;2023-04-01T07:16:39;3.30;86.70
71668;DHT22;59504;54.806;9.640;2023-04-01T07:18:56;3.40;86.70
71668;DHT22;59504;54.806;9.640;2023-04-01T07:20:58;3.40;86.80
71668;DHT22;59504;54.806;9.640;2023-04-01T07:23:03;3.40;86.70
71668;DHT22;59504;54.806;9.640;2023-04-01T07:25:27;3.50;86.80
71668;DHT22;59504;54.806;9.640;2023-04-01T07:27:31;3.40;86.50
71668;DHT22;59504;54.806;9.640;2023-04-01T07:29:32;3.40;86.50
71668;DHT22;59504;54.806;9.640;2023-04-01T07:34:27;3.40;86.60
71668;DHT22;59504;54.806;9.640;2023-04-01T07:38:50;3.40;86.60
71668;DHT22;59504;54.806;9.640;2023-04-01T07:41:14;3.30;86.70
71668;DHT22;59504;54.806;9.640;2023-04-01T07:54:57;3.30;86.70
71668;DHT22;59504;54.806;9.640;2023-04-01T07:57:22;3.30;86.70
71668;DHT22;59504;54.806;9.640;2023-04-01T08:07:36;3.10;86.60
71668;DHT22;59504;54.806;9.640;2023-04-01T08:17:07;3.00;86.40
71668;DHT22;59504;54.806;9.640;2023-04-01T08:22:03;3.10;85.90
71668;DHT22;59504;54.806;9.640;2023-04-01T08:24:42;3.00;86.00
71668;DHT22;59504;54.806;9.640;2023-04-01T08:27:09;3.10;86.80
71668;DHT22;59504;54.806;9.640;2023-04-01T08:29:48;3.00;86.40
71668;DHT22;59504;54.806;9.640;2023-04-01T08:31:55;3.00;86.40
71668;DHT22;59504;54.806;9.640;2023-04-01T08:33:56;3.00;85.90
71668;DHT22;59504;54.806;9.640;2023-04-01T08:36:37;3.10;86.00
71668;DHT22;59504;54.806;9.640;2023-04-01T08:38:51;3.00;85.90
71668;DHT22;59504;54.806;9.640;2023-04-01T08:41:00;3.00;86.00
71668;DHT22;59504;54.806;9.640;2023-04-01T08:46:08;2.90;85.60
71668;DHT22;59504;54.806;9.640;2023-04-01T08:53:47;3.00;85.60
71668;DHT22;59504;54.806;9.640;2023-04-01T09:02:38;2.90;85.70
71668;DHT22;59504;54.806;9.640;2023-04-01T09:05:23;2.80;85.30
71668;DHT22;59504;54.806;9.640;2023-04-01T09:07:47;2.80;85.60
71668;DHT22;59504;54.806;9.640;2023-04-01T09:17:20;2.90;84.90
71668;DHT22;59504;54.806;9.640;2023-04-01T09:22:29;3.00;85.00
71668;DHT22;59504;54.806;9.640;2023-04-01T09:31:01;2.90;84.40
71668;DHT22;59504;54.806;9.640;2023-04-01T09:37:51;2.90;84.20
71668;DHT22;59504;54.806;9.640;2023-04-01T09:42:49;2.90;84.20
71668;DHT22;59504;54.806;9.640;2023-04-01T09:45:01;2.90;84.10
71668;DHT22;59504;54.806;9.640;2023-04-01T09:50:56;2.90;83.70
71668;DHT22;59504;54.806;9.640;2023-04-01T09:54:45;2.80;83.30
71668;DHT22;59504;54.806;9.640;2023-04-01T10:07:11;3.00;83.10
71668;DHT22;59504;54.806;9.640;2023-04-01T10:10:03;3.00;83.20
71668;DHT22;59504;54.806;9.640;2023-04-01T10:25:00;3.00;82.20
71668;DHT22;59504;54.806;9.640;2023-04-01T10:30:13;2.90;82.30
71668;DHT22;59504;54.806;9.640;2023-04-01T10:41:44;3.00;81.60
71668;DHT22;59504;54.806;9.640;2023-04-01T10:54:26;3.10;80.60
71668;DHT22;59504;54.806;9.640;2023-04-01T10:56:53;3.10;80.60
71668;DHT22;59504;54.806;9.640;2023-04-01T10:59:05;3.00;80.10
71668;DHT22;59504;54.806;9.640;2023-04-01T11:16:03;3.10;80.90
71668;DHT22;59504;54.806;9.640;2023-04-01T11:28:06;3.20;79.60
71668;DHT22;59504;54.806;9.640;2023-04-01T11:37:30;3.30;78.90
71668;DHT22;59504;54.806;9.640;2023-04-01T11:39:59;3.30;78.80
71668;DHT22;59504;54.806;9.640;2023-04-01T11:42:20;3.30;79.30
71668;DHT22;59504;54.806;9.640;2023-04-01T11:44:29;3.30;79.40
71668;DHT22;59504;54.806;9.640;2023-04-01T11:46:42;3.30;79.40
71668;DHT22;59504;54.806;9.640;2023-04-01T11:59:44;3.30;79.40
71668;DHT22;59504;54.806;9.640;2023-04-01T12:04:42;3.30;78.90
71668;DHT22;59504;54.806;9.640;2023-04-01T12:13:02;3.30;78.30
71668;DHT22;59504;54.806;9.640;2023-04-01T12:20:49;3.10;77.80
71668;DHT22;59504;54.806;9.640;2023-04-01T12:26:15;3.30;77.80
71668;DHT22;59504;54.806;9.640;2023-04-01T12:29:05;3.30;77.50
71668;DHT22;59504;54.806;9.640;2023-04-01T12:44:15;3.40;76.60
71668;DHT22;59504;54.806;9.640;2023-04-01T12:57:57;3.30;75.90
71668;DHT22;59504;54.806;9.640;2023-04-01T13:00:25;3.40;75.90
71668;DHT22;59504;54.806;9.640;2023-04-01T13:09:52;3.20;75.10
71668;DHT22;59504;54.806;9.640;2023-04-01T13:17:14;3.30;74.90
71668;DHT22;59504;54.806;9.640;2023-04-01T13:24:13;3.30;74.40
71668;DHT22;59504;54.806;9.640;2023-04-01T13:27:01;3.50;74.70
71668;DHT22;59504;54.806;9.640;2023-04-01T13:31:29;3.60;74.70
71668;DHT22;59504;54.806;9.640;2023-04-01T13:36:10;3.70;75.10
71668;DHT22;59504;54.806;9.640;2023-04-01T13:43:23;3.70;74.40
71668;DHT22;59504;54.806;9.640;2023-04-01T13:50:26;3.80;74.50
71668;DHT22;59504;54.806;9.640;2023-04-01T13:57:48;3.90;72.90
71668;DHT22;59504;54.806;9.640;2023-04-01T14:17:30;4.10;71.50
71668;DHT22;59504;54.806;9.640;2023-04-01T14:22:13;4.30;70.70
71668;DHT22;59504;54.806;9.640;2023-04-01T14:26:30;4.40;68.60
71668;DHT22;59504;54.806;9.640;2023-04-01T14:31:23;4.50;69.30
71668;DHT22;59504;54.806;9.640;2023-04-01T14:35:46;4.50;66.90
71668;DHT22;59504;54.806;9.640;2023-04-01T14:40:16;4.60;67.30
71668;DHT22;59504;54.806;9.640;2023-04-01T14:45:27;4.60;66.90
71668;DHT22;59504;54.806;9.640;2023-04-01T14:50:02;4.70;65.50
71668;DHT22;59504;54.806;9.640;2023-04-01T14:52:16;4.80;66.30
71668;DHT22;59504;54.806;9.640;2023-04-01T14:54:35;4.70;65.30
71668;DHT22;59504;54.806;9.640;2023-04-01T14:56:50;4.60;65.00
71668;DHT22;59504;54.806;9.640;2023-04-01T14:58:57;4.70;66.00
71668;DHT22;59504;54.806;9.640;2023-04-01T15:03:20;4.70;65.50
71668;DHT22;59504;54.806;9.640;2023-04-01T15:12:34;4.80;63.00
71668;DHT22;59504;54.806;9.640;2023-04-01T15:22:48;4.90;61.40
71668;DHT22;59504;54.806;9.640;2023-04-01T15:30:24;4.90;61.20
71668;DHT22;59504;54.806;9.640;2023-04-01T15:38:40;4.70;59.70
71668;DHT22;59504;54.806;9.640;2023-04-01T15:41:09;4.80;59.10
71668;DHT22;59504;54.806;9.640;2023-04-01T15:43:47;4.70;59.80
71668;DHT22;59504;54.806;9.640;2023-04-01T15:48:43;4.80;58.40
71668;DHT22;59504;54.806;9.640;2023-04-01T15:50:58;4.80;57.10
71668;DHT22;59504;54.806;9.640;2023-04-01T16:10:34;4.60;53.70
71668;DHT22;59504;54.806;9.640;2023-04-01T16:15:32;4.50;53.00
71668;DHT22;59504;54.806;9.640;2023-04-01T16:20:20;4.50;52.70
71668;DHT22;59504;54.806;9.640;2023-04-01T16:23:00;4.50;51.40
71668;DHT22;59504;54.806;9.640;2023-04-01T16:25:44;4.40;51.90
71668;DHT22;59504;54.806;9.640;2023-04-01T16:28:29;4.40;52.70
71668;DHT22;59504;54.806;9.640;2023-04-01T16:31:03;4.40;53.80
71668;DHT22;59504;54.806;9.640;2023-04-01T16:33:37;4.40;53.30
71668;DHT22;59504;54.806;9.640;2023-04-01T16:38:59;4.40;54.70
71668;DHT22;59504;54.806;9.640;2023-04-01T16:41:30;4.40;54.20
71668;DHT22;59504;54.806;9.640;2023-04-01T16:46:12;4.30;55.00
71668;DHT22;59504;54.806;9.640;2023-04-01T16:48:18;4.30;55.60
71668;DHT22;59504;54.806;9.640;2023-04-01T16:50:29;4.20;55.30
71668;DHT22;59504;54.806;9.640;2023-04-01T16:53:14;4.20;55.80
71668;DHT22;59504;54.806;9.640;2023-04-01T16:55:50;4.30;56.20
71668;DHT22;59504;54.806;9.640;2023-04-01T16:58:18;4.30;56.00
71668;DHT22;59504;54.806;9.640;2023-04-01T17:00:50;4.30;55.40
71668;DHT22;59504;54.806;9.640;2023-04-01T17:03:28;4.40;55.40
71668;DHT22;59504;54.806;9.640;2023-04-01T17:08:22;4.30;56.20
71668;DHT22;59504;54.806;9.640;2023-04-01T17:10:56;4.30;56.60
71668;DHT22;59504;54.806;9.640;2023-04-01T17:14:07;4.30;56.70
71668;DHT22;59504;54.806;9.640;2023-04-01T17:16:28;4.30;57.10
71668;DHT22;59504;54.806;9.640;2023-04-01T17:18:55;4.20;57.20
71668;DHT22;59504;54.806;9.640;2023-04-01T17:27:14;4.30;58.90
71668;DHT22;59504;54.806;9.640;2023-04-01T17:29:43;4.30;59.00
71668;DHT22;59504;54.806;9.640;2023-04-01T17:32:23;4.30;59.10
71668;DHT22;59504;54.806;9.640;2023-04-01T17:43:22;4.20;59.80
71668;DHT22;59504;54.806;9.640;2023-04-01T17:45:57;4.10;60.20
71668;DHT22;59504;54.806;9.640;2023-04-01T17:48:52;4.00;60.90
71668;DHT22;59504;54.806;9.640;2023-04-01T17:53:57;3.90;60.20
71668;DHT22;59504;54.806;9.640;2023-04-01T17:59:06;3.90;59.70
71668;DHT22;59504;54.806;9.640;2023-04-01T18:01:51;3.90;59.70
71668;DHT22;59504;54.806;9.640;2023-04-01T18:04:25;3.90;59.70
71668;DHT22;59504;54.806;9.640;2023-04-01T18:12:40;3.90;60.90
71668;DHT22;59504;54.806;9.640;2023-04-01T18:15:27;3.90;61.30
71668;DHT22;59504;54.806;9.640;2023-04-01T18:25:41;3.70;60.50
71668;DHT22;59504;54.806;9.640;2023-04-01T18:36:09;3.60;61.40
71668;DHT22;59504;54.806;9.640;2023-04-01T18:38:39;3.60;61.50
71668;DHT22;59504;54.806;9.640;2023-04-01T18:41:25;3.50;61.50
71668;DHT22;59504;54.806;9.640;2023-04-01T18:51:25;3.50;61.80
71668;DHT22;59504;54.806;9.640;2023-04-01T18:53:28;3.70;62.00
71668;DHT22;59504;54.806;9.640;2023-04-01T18:55:35;3.70;62.30
71668;DHT22;59504;54.806;9.640;2023-04-01T18:57:47;3.70;62.90
71668;DHT22;59504;54.806;9.640;2023-04-01T19:00:04;3.70;63.00
71668;DHT22;59504;54.806;9.640;2023-04-01T19:04:20;3.60;63.00
71668;DHT22;59504;54.806;9.640;2023-04-01T19:06:35;3.70;63.00
71668;DHT22;59504;54.806;9.640;2023-04-01T19:09:32;3.70;63.20
71668;DHT22;59504;54.806;9.640;2023-04-01T19:12:18;3.70;63.50
71668;DHT22;59504;54.806;9.640;2023-04-01T19:14:46;3.60;64.20
71668;DHT22;59504;54.806;9.640;2023-04-01T19:17:16;3.60;64.30
71668;DHT22;59504;54.806;9.640;2023-04-01T19:19:29;3.60;64.40
71668;DHT22;59504;54.806;9.640;2023-04-01T19:21:47;3.60;64.60
71668;DHT22;59504;54.806;9.640;2023-04-01T19:24:09;3.60;64.40
71668;DHT22;59504;54.806;9.640;2023-04-01T19:31:51;3.40;64.60
71668;DHT22;59504;54.806;9.640;2023-04-01T19:34:26;3.40;64.40
71668;DHT22;59504;54.806;9.640;2023-04-01T19:56:53;3.30;65.60
71668;DHT22;59504;54.806;9.640;2023-04-01T20:01:06;3.30;65.60
71668;DHT22;59504;54.806;9.640;2023-04-01T20:03:49;3.30;65.60
71668;DHT22;59504;54.806;9.640;2023-04-01T20:10:30;3.20;65.20
71668;DHT22;59504;54.806;9.640;2023-04-01T20:15:00;3.20;65.20
71668;DHT22;59504;54.806;9.640;2023-04-01T20:17:11;3.20;65.10
71668;DHT22;59504;54.806;9.640;2023-04-01T20:19:40;3.10;64.90
71668;DHT22;59504;54.806;9.640;2023-04-01T20:21:46;3.10;64.60
71668;DHT22;59504;54.806;9.640;2023-04-01T20:24:19;3.00;64.20
71668;DHT22;59504;54.806;9.640;2023-04-01T20:26:50;3.10;64.40
71668;DHT22;59504;54.806;9.640;2023-04-01T20:29:35;3.00;64.20
71668;DHT22;59504;54.806;9.640;2023-04-01T20:41:19;2.90;63.20
71668;DHT22;59504;54.806;9.640;2023-04-01T20:43:38;2.90;62.90
71668;DHT22;59504;54.806;9.640;2023-04-01T20:46:20;2.90;63.10
71668;DHT22;59504;54.806;9.640;2023-04-01T20:51:16;2.90;63.30
71668;DHT22;59504;54.806;9.640;2023-04-01T20:58:35;2.90;63.30
71668;DHT22;59504;54.806;9.640;2023-04-01T21:11:10;2.80;63.20
71668;DHT22;59504;54.806;9.640;2023-04-01T21:34:36;2.80;62.90
71668;DHT22;59504;54.806;9.640;2023-04-01T21:43:52;2.60;62.40
71668;DHT22;59504;54.806;9.640;2023-04-01T22:06:27;2.80;62.10
71668;DHT22;59504;54.806;9.640;2023-04-01T22:12:09;2.60;61.70
71668;DHT22;59504;54.806;9.640;2023-04-01T22:14:41;2.70;62.00
71668;DHT22;59504;54.806;9.640;2023-04-01T22:17:27;2.70;62.00
71668;DHT22;59504;54.806;9.640;2023-04-01T22:19:56;2.60;62.50
71668;DHT22;59504;54.806;9.640;2023-04-01T22:22:38;2.70;62.70
71668;DHT22;59504;54.806;9.640;2023-04-01T22:25:16;2.70;62.50
71668;DHT22;59504;54.806;9.640;2023-04-01T22:30:32;2.60;63.20
71668;DHT22;59504;54.806;9.640;2023-04-01T22:32:43;2.60;63.50
71668;DHT22;59504;54.806;9.640;2023-04-01T22:37:49;2.60;63.70
71668;DHT22;59504;54.806;9.640;2023-04-01T22:40:24;2.70;63.70
71668;DHT22;59504;54.806;9.640;2023-04-01T22:45:33;2.70;63.50
71668;DHT22;59504;54.806;9.640;2023-04-01T22:48:08;2.80;63.80
71668;DHT22;59504;54.806;9.640;2023-04-01T22:53:17;2.70;64.10
71668;DHT22;59504;54.806;9.640;2023-04-01T22:55:25;2.60;64.00
71668;DHT22;59504;54.806;9.640;2023-04-01T22:57:57;2.60;64.00
71668;DHT22;59504;54.806;9.640;2023-04-01T23:00:49;2.60;64.10
71668;DHT22;59504;54.806;9.640;2023-04-01T23:05:44;2.70;64.40
71668;DHT22;59504;54.806;9.640;2023-04-01T23:10:51;2.80;64.60
71668;DHT22;59504;54.806;9.640;2023-04-01T23:13:18;2.80;64.60
71668;DHT22;59504;54.806;9.640;2023-04-01T23:15:30;2.80;64.80
71668;DHT22;59504;54.806;9.640;2023-04-01T23:18:00;2.80;64.90
71668;DHT22;59504;54.806;9.640;2023-04-01T23:27:28;2.80;65.60
71668;DHT22;59504;54.806;9.640;2023-04-01T23:29:35;2.80;65.90
71668;DHT22;59504;54.806;9.640;2023-04-01T23:31:38;2.80;66.00
71668;DHT22;59504;54.806;9.640;2023-04-01T23:33:43;2.80;66.10
71668;DHT22;59504;54.806;9.640;2023-04-01T23:36:01;2.90;66.60
71668;DHT22;59504;54.806;9.640;2023-04-01T23:38:07;2.90;66.90
71668;DHT22;59504;54.806;9.640;2023-04-01T23:40:12;2.80;67.30
71668;DHT22;59504;54.806;9.640;2023-04-01T23:42:39;2.90;67.50
71668;DHT22;59504;54.806;9.640;2023-04-01T23:45:05;2.90;67.40
71668;DHT22;59504;54.806;9.640;2023-04-01T23:47:33;2.90;67.50
71668;DHT22;59504;54.806;9.640;2023-04-01T23:50:01;2.90;67.50
71668;DHT22;59504;54.806;9.640;2023-04-01T23:52:24;2.90;67.60
71668;DHT22;59504;54.806;9.640;2023-04-01T23:55:00;2.90;67.60
71668;DHT22;59504;54.806;9.640;2023-04-01T23:57:27;2.90;68.00
